Time;durP1;ratioP1;P1;durP2;ratioP2;P2;SDS_P1;SDS_P2;PMS_P1;PMS_P2;Temp;Humidity;BMP_temperature;BMP_pressure;BME280_temperature;BME280_humidity;BME280_pressure;Samples;Min_cycle;Max_cycle;Signal;HPM_P1;HPM_P2
2021/08/28 00:01:55;;;;;;;3;2.5;;;;;;;;;;;;;
2021/08/28 00:04:20;;;;;;;2.6;2.3;;;;;;;;;;;;;
2021/08/28 00:06:45;;;;;;;2.7;2.3;;;;;;;;;;;;;
2021/08/28 00:09:10;;;;;;;2.6;2.1;;;;;;;;;;;;;
2021/08/28 00:11:35;;;;;;;3.2;2.2;;;;;;;;;;;;;
2021/08/28 00:14:00;;;;;;;3.8;2.6;;;;;;;;;;;;;
2021/08/28 00:16:27;;;;;;;2.8;2.5;;;;;;;;;;;;;
2021/08/28 00:18:50;;;;;;;3.2;2.4;;;;;;;;;;;;;
2021/08/28 00:21:15;;;;;;;3.5;2.1;;;;;;;;;;;;;
2021/08/28 00:23:41;;;;;;;2.7;2.5;;;;;;;;;;;;;
2021/08/28 00:26:06;;;;;;;3.6;2.3;;;;;;;;;;;;;
2021/08/28 00:28:31;;;;;;;2.2;1.9;;;;;;;;;;;;;
2021/08/28 00:30:57;;;;;;;2.5;2.3;;;;;;;;;;;;;
2021/08/28 00:33:21;;;;;;;2.4;2.1;;;;;;;;;;;;;
2021/08/28 00:35:46;;;;;;;3.6;2.4;;;;;;;;;;;;;
2021/08/28 00:38:11;;;;;;;3.6;2.7;;;;;;;;;;;;;
2021/08/28 00:40:36;;;;;;;2.2;2;;;;;;;;;;;;;
2021/08/28 00:43:02;;;;;;;2.9;2.1;;;;;;;;;;;;;
2021/08/28 00:45:27;;;;;;;2.8;2.5;;;;;;;;;;;;;
2021/08/28 00:47:52;;;;;;;2.5;2.3;;;;;;;;;;;;;
2021/08/28 00:50:17;;;;;;;2.5;2.1;;;;;;;;;;;;;
2021/08/28 00:52:43;;;;;;;2.3;2;;;;;;;;;;;;;
2021/08/28 00:55:08;;;;;;;2.6;2.4;;;;;;;;;;;;;
2021/08/28 00:57:33;;;;;;;3.7;2.6;;;;;;;;;;;;;
2021/08/28 00:59:58;;;;;;;2.5;2.3;;;;;;;;;;;;;
2021/08/28 01:02:23;;;;;;;3.6;2.5;;;;;;;;;;;;;
2021/08/28 01:04:48;;;;;;;2.9;2.4;;;;;;;;;;;;;
2021/08/28 01:07:13;;;;;;;2.8;2.1;;;;;;;;;;;;;
2021/08/28 01:09:39;;;;;;;3.3;2;;;;;;;;;;;;;
2021/08/28 01:12:04;;;;;;;2.3;2.1;;;;;;;;;;;;;
2021/08/28 01:14:29;;;;;;;4.7;2.4;;;;;;;;;;;;;
2021/08/28 01:16:54;;;;;;;4;2.5;;;;;;;;;;;;;
2021/08/28 01:19:20;;;;;;;2.1;1.9;;;;;;;;;;;;;
2021/08/28 01:21:45;;;;;;;2;1.9;;;;;;;;;;;;;
2021/08/28 01:24:10;;;;;;;2.5;2;;;;;;;;;;;;;
2021/08/28 01:26:35;;;;;;;2.6;2.1;;;;;;;;;;;;;
2021/08/28 01:29:00;;;;;;;2.5;2;;;;;;;;;;;;;
2021/08/28 01:31:25;;;;;;;2;1.8;;;;;;;;;;;;;
2021/08/28 01:33:50;;;;;;;2.5;1.9;;;;;;;;;;;;;
2021/08/28 01:36:15;;;;;;;2;1.7;;;;;;;;;;;;;
2021/08/28 01:38:40;;;;;;;3;2.2;;;;;;;;;;;;;
2021/08/28 01:41:06;;;;;;;2.7;2.1;;;;;;;;;;;;;
2021/08/28 01:43:31;;;;;;;2.7;2.1;;;;;;;;;;;;;
2021/08/28 01:45:56;;;;;;;2.9;2.2;;;;;;;;;;;;;
2021/08/28 01:48:22;;;;;;;3.3;1.9;;;;;;;;;;;;;
2021/08/28 01:50:47;;;;;;;2.8;2.1;;;;;;;;;;;;;
2021/08/28 01:53:12;;;;;;;2.8;1.9;;;;;;;;;;;;;
2021/08/28 01:55:37;;;;;;;2.9;2;;;;;;;;;;;;;
2021/08/28 01:58:03;;;;;;;3.7;2.2;;;;;;;;;;;;;
2021/08/28 02:00:28;;;;;;;2.2;2;;;;;;;;;;;;;
2021/08/28 02:02:53;;;;;;;3.1;1.9;;;;;;;;;;;;;
2021/08/28 02:05:18;;;;;;;2.4;2.2;;;;;;;;;;;;;
2021/08/28 02:07:43;;;;;;;3.6;2.4;;;;;;;;;;;;;
2021/08/28 02:10:08;;;;;;;3.3;2.3;;;;;;;;;;;;;
2021/08/28 02:12:34;;;;;;;2.9;2.4;;;;;;;;;;;;;
2021/08/28 02:14:59;;;;;;;2.2;2;;;;;;;;;;;;;
2021/08/28 02:17:24;;;;;;;2.4;2.1;;;;;;;;;;;;;
2021/08/28 02:19:49;;;;;;;2.9;1.9;;;;;;;;;;;;;
2021/08/28 02:22:14;;;;;;;2.5;2;;;;;;;;;;;;;
2021/08/28 02:24:39;;;;;;;2.2;2;;;;;;;;;;;;;
2021/08/28 02:27:04;;;;;;;2.6;2.1;;;;;;;;;;;;;
2021/08/28 02:29:29;;;;;;;2.7;2.2;;;;;;;;;;;;;
2021/08/28 02:31:58;;;;;;;3;2.3;;;;;;;;;;;;;
2021/08/28 02:34:20;;;;;;;2.7;2.2;;;;;;;;;;;;;
2021/08/28 02:36:45;;;;;;;2.5;2.3;;;;;;;;;;;;;
2021/08/28 02:39:10;;;;;;;2.6;2;;;;;;;;;;;;;
2021/08/28 02:41:35;;;;;;;4.1;2.1;;;;;;;;;;;;;
2021/08/28 02:44:00;;;;;;;2.6;2.4;;;;;;;;;;;;;
2021/08/28 02:46:25;;;;;;;5.4;2.4;;;;;;;;;;;;;
2021/08/28 02:48:50;;;;;;;3.9;2.4;;;;;;;;;;;;;
2021/08/28 02:51:15;;;;;;;2.3;2.1;;;;;;;;;;;;;
2021/08/28 02:53:41;;;;;;;4;2.3;;;;;;;;;;;;;
2021/08/28 02:56:06;;;;;;;2.5;2.2;;;;;;;;;;;;;
2021/08/28 02:58:31;;;;;;;3.2;2.1;;;;;;;;;;;;;
2021/08/28 03:00:56;;;;;;;2.9;2.3;;;;;;;;;;;;;
2021/08/28 03:03:21;;;;;;;2.8;2.2;;;;;;;;;;;;;
2021/08/28 03:05:46;;;;;;;3.4;2.5;;;;;;;;;;;;;
2021/08/28 03:08:11;;;;;;;2.1;1.9;;;;;;;;;;;;;
2021/08/28 03:10:37;;;;;;;3.4;2.1;;;;;;;;;;;;;
2021/08/28 03:13:02;;;;;;;3.1;2.2;;;;;;;;;;;;;
2021/08/28 03:15:27;;;;;;;2.9;2.4;;;;;;;;;;;;;
2021/08/28 03:17:52;;;;;;;2.3;2;;;;;;;;;;;;;
2021/08/28 03:20:18;;;;;;;2.3;2.1;;;;;;;;;;;;;
2021/08/28 03:22:43;;;;;;;2.3;2.1;;;;;;;;;;;;;
2021/08/28 03:25:08;;;;;;;2.8;2;;;;;;;;;;;;;
2021/08/28 03:27:34;;;;;;;2.3;2.1;;;;;;;;;;;;;
2021/08/28 03:29:59;;;;;;;2;1.8;;;;;;;;;;;;;
2021/08/28 03:32:24;;;;;;;2.3;2.1;;;;;;;;;;;;;
2021/08/28 03:34:49;;;;;;;3.9;2.3;;;;;;;;;;;;;
2021/08/28 03:37:15;;;;;;;2.9;2.3;;;;;;;;;;;;;
2021/08/28 03:39:39;;;;;;;4.8;2.5;;;;;;;;;;;;;
2021/08/28 03:42:04;;;;;;;3;2.2;;;;;;;;;;;;;
2021/08/28 03:44:39;;;;;;;2.2;2;;;;;;;;;;;;;
2021/08/28 03:47:04;;;;;;;2.3;2;;;;;;;;;;;;;
2021/08/28 03:49:29;;;;;;;3.2;2.1;;;;;;;;;;;;;
2021/08/28 03:51:54;;;;;;;3.1;2.1;;;;;;;;;;;;;
2021/08/28 03:54:19;;;;;;;3;2.4;;;;;;;;;;;;;
2021/08/28 03:56:44;;;;;;;2.1;1.9;;;;;;;;;;;;;
2021/08/28 03:59:09;;;;;;;2.6;2.1;;;;;;;;;;;;;
2021/08/28 04:02:31;;;;;;;3.7;2.3;;;;;;;12.29;90.34668;936.9939;;;;
2021/08/28 04:04:56;;;;;;;3.4;2.2;;;;;;;12.24;91.31152;936.9858;;;;
2021/08/28 04:07:21;;;;;;;2.4;2;;;;;;;12.26;91.03027;936.9779;;;;
2021/08/28 04:09:46;;;;;;;2.9;2.6;;;;;;;12.41;90.26953;937.0083;;;;
2021/08/28 04:12:12;;;;;;;2.9;2.1;;;;;;;12.39;90.96289;936.9724;;;;
2021/08/28 04:14:37;;;;;;;3;2.2;;;;;;;12.39;90.96484;936.978;;;;
2021/08/28 04:17:06;;;;;;;2.3;2.1;;;;;;;12.41;91.27832;936.9819;;;;
2021/08/28 04:19:31;;;;;;;3.3;2.3;;;;;;;12.4;91.10254;936.9748;;;;
2021/08/28 04:21:56;;;;;;;3.7;2.5;;;;;;;12.41;90.71875;936.9;;;;
2021/08/28 04:24:23;;;;;;;2.7;2.5;;;;;;;12.4;91.13672;936.9141;;;;
2021/08/28 04:26:48;;;;;;;3.2;2.7;;;;;;;12.38;90.73438;936.9277;;;;
2021/08/28 04:29:14;;;;;;;9.7;7.5;;;;;;;12.44;90.41309;936.9247;;;;
2021/08/28 04:31:39;;;;;;;8.3;6.2;;;;;;;12.41;91.05078;936.9383;;;;
2021/08/28 04:34:04;;;;;;;7.7;6.3;;;;;;;12.5;90.70117;936.983;;;;
2021/08/28 04:36:29;;;;;;;4.9;3.9;;;;;;;12.49;90.63086;936.9455;;;;
2021/08/28 04:38:54;;;;;;;4.2;3.6;;;;;;;12.45;91.41211;936.9615;;;;
2021/08/28 04:41:19;;;;;;;3.8;2.8;;;;;;;12.4;91.21973;936.8725;;;;
2021/08/28 04:43:44;;;;;;;3.3;2.8;;;;;;;12.42;90.9248;936.9519;;;;
2021/08/28 04:46:25;;;;;;;3.2;2.5;;;;;;;12.43;90.72266;936.9783;;;;
2021/08/28 04:48:51;;;;;;;4.1;3;;;;;;;12.38;91.00879;936.9915;;;;
2021/08/28 04:51:16;;;;;;;3.7;2.7;;;;;;;12.37;91.0625;937.0234;;;;
2021/08/28 04:53:42;;;;;;;3;2.5;;;;;;;12.48;89.9502;937.0286;;;;
2021/08/28 04:56:07;;;;;;;4.3;2.5;;;;;;;12.42;90.45508;937.0014;;;;
2021/08/28 04:58:32;;;;;;;3.5;2.6;;;;;;;12.5;90.63086;937.0237;;;;
2021/08/28 05:00:59;;;;;;;4.1;2.8;;;;;;;12.5;91.5957;937.0086;;;;
2021/08/28 05:03:25;;;;;;;2.5;2.3;;;;;;;12.46;92.52637;937.0358;;;;
2021/08/28 05:05:50;;;;;;;3.9;2.4;;;;;;;12.43;92.48633;937.0142;;;;
2021/08/28 05:08:14;;;;;;;2.8;2;;;;;;;12.33;92.58008;937.0283;;;;
2021/08/28 05:10:40;;;;;;;2.6;2.3;;;;;;;12.37;92.34668;937.0402;;;;
2021/08/28 05:13:05;;;;;;;2.7;2.3;;;;;;;12.43;92.64551;936.9934;;;;
2021/08/28 05:15:30;;;;;;;3.4;2.4;;;;;;;12.42;93.06934;937.0676;;;;
2021/08/28 05:17:56;;;;;;;2.9;2.6;;;;;;;12.52;92.28809;937.0502;;;;
2021/08/28 05:20:21;;;;;;;2.3;2;;;;;;;12.69;90.0752;937.0583;;;;
2021/08/28 05:22:47;;;;;;;3.9;2.5;;;;;;;12.6;88.73535;937.0525;;;;
2021/08/28 05:25:12;;;;;;;3.6;2.4;;;;;;;12.57;88.96094;937.0605;;;;
2021/08/28 05:27:37;;;;;;;2.5;2.3;;;;;;;12.56;89.17676;937.0789;;;;
2021/08/28 05:30:03;;;;;;;3.3;2.2;;;;;;;12.64;88.90527;937.1295;;;;
2021/08/28 05:32:28;;;;;;;3.4;2.3;;;;;;;12.67;89.08496;937.1606;;;;
2021/08/28 05:34:55;;;;;;;3.9;2.6;;;;;;;12.75;88.80078;937.1453;;;;
2021/08/28 05:37:18;;;;;;;3.2;2.5;;;;;;;12.76;89.14746;937.1541;;;;
2021/08/28 05:39:45;;;;;;;3.5;2.4;;;;;;;12.72;89.66797;937.1917;;;;
2021/08/28 05:42:10;;;;;;;4;3.1;;;;;;;12.76;90.00781;937.1845;;;;
2021/08/28 05:44:36;;;;;;;4.4;2.7;;;;;;;12.72;90.5625;937.1494;;;;
2021/08/28 05:47:01;;;;;;;2.5;2.3;;;;;;;12.72;91.04688;937.1694;;;;
2021/08/28 05:49:26;;;;;;;2.6;2.2;;;;;;;12.75;90.35059;937.1965;;;;
2021/08/28 05:51:51;;;;;;;2.4;2.1;;;;;;;12.71;90.75781;937.1797;;;;
2021/08/28 05:54:16;;;;;;;3.2;2.3;;;;;;;12.79;91.07129;937.1477;;;;
2021/08/28 05:56:42;;;;;;;3.7;2.6;;;;;;;12.95;90.18652;937.1838;;;;
2021/08/28 05:59:07;;;;;;;4.8;2.6;;;;;;;13.03;89.96094;937.2319;;;;
2021/08/28 06:01:33;;;;;;;3.5;2.5;;;;;;;13.1;89.32129;937.2181;;;;
2021/08/28 06:06:23;;;;;;;3.6;2.7;;;;;;;13.04;89.27344;937.2023;;;;
2021/08/28 06:08:48;;;;;;;3.9;3.3;;;;;;;12.83;90.20703;937.1703;;;;
2021/08/28 06:11:14;;;;;;;3.7;3;;;;;;;12.87;90.21387;937.1495;;;;
2021/08/28 06:13:39;;;;;;;3.4;2.6;;;;;;;12.98;89.98535;937.1789;;;;
2021/08/28 06:16:04;;;;;;;2.9;2.4;;;;;;;12.94;89.76953;937.1902;;;;
2021/08/28 06:18:29;;;;;;;3.1;2.5;;;;;;;12.88;89.90625;937.1631;;;;
2021/08/28 06:20:56;;;;;;;3.6;2.3;;;;;;;12.85;90.87793;937.1911;;;;
2021/08/28 06:23:20;;;;;;;3.1;2.7;;;;;;;12.9;91.49609;937.2062;;;;
2021/08/28 06:25:45;;;;;;;3.7;2.6;;;;;;;13;91.36719;937.2516;;;;
2021/08/28 06:28:11;;;;;;;4.4;2.7;;;;;;;12.98;91.40918;937.302;;;;
2021/08/28 06:30:36;;;;;;;3.4;2.5;;;;;;;13;91.37891;937.3236;;;;
2021/08/28 06:33:01;;;;;;;3.3;2.7;;;;;;;12.96;91.54199;937.318;;;;
2021/08/28 06:35:26;;;;;;;3;2.5;;;;;;;12.9;91.72559;937.4028;;;;
2021/08/28 06:37:51;;;;;;;2.7;2.5;;;;;;;12.53;92.88574;937.3928;;;;
2021/08/28 06:40:16;;;;;;;3.5;3.1;;;;;;;12.32;94.42383;937.3987;;;;
2021/08/28 06:42:42;;;;;;;3.9;2.7;;;;;;;12.24;95.15137;937.4001;;;;
2021/08/28 06:45:07;;;;;;;5.1;3.3;;;;;;;12.18;95.38965;937.4572;;;;
2021/08/28 06:47:32;;;;;;;4.3;3.1;;;;;;;12.26;95.08691;937.4984;;;;
2021/08/28 06:49:57;;;;;;;4.7;2.9;;;;;;;12.34;94.45117;937.5672;;;;
2021/08/28 06:52:22;;;;;;;2.3;2.1;;;;;;;12.25;93.50293;937.579;;;;
2021/08/28 06:54:48;;;;;;;3;2;;;;;;;12.14;93.94922;937.4595;;;;
2021/08/28 06:57:13;;;;;;;4.1;3.1;;;;;;;12.11;92.625;937.4277;;;;
2021/08/28 06:59:38;;;;;;;2;1.8;;;;;;;12.14;92.57422;937.4835;;;;
2021/08/28 07:02:03;;;;;;;3.2;1.9;;;;;;;12.29;92.48047;937.4578;;;;
2021/08/28 07:04:28;;;;;;;3;2.1;;;;;;;12.23;92.71973;937.4417;;;;
2021/08/28 07:06:54;;;;;;;2.1;1.4;;;;;;;12.1;91.9707;937.4531;;;;
2021/08/28 07:09:19;;;;;;;1.3;1.2;;;;;;;12.3;92.48047;937.4625;;;;
2021/08/28 07:11:44;;;;;;;1.7;1.2;;;;;;;12.47;91.31445;937.4958;;;;
2021/08/28 07:14:09;;;;;;;1.8;1.1;;;;;;;12.66;90.02148;937.4586;;;;
2021/08/28 07:16:34;;;;;;;1.3;1;;;;;;;12.7;90.65039;937.572;;;;
2021/08/28 07:18:59;;;;;;;2.1;0.9;;;;;;;12.72;89.50684;937.5976;;;;
2021/08/28 07:21:25;;;;;;;1.7;1;;;;;;;12.76;90.38672;937.6519;;;;
2021/08/28 07:23:50;;;;;;;1.4;1;;;;;;;12.67;90.07129;937.6049;;;;
2021/08/28 07:26:15;;;;;;;0.9;0.9;;;;;;;12.65;88.57422;937.6016;;;;
2021/08/28 07:28:40;;;;;;;1.6;0.8;;;;;;;12.73;87.7666;937.6128;;;;
2021/08/28 07:31:06;;;;;;;1.4;0.8;;;;;;;12.73;87.18164;937.5552;;;;
2021/08/28 07:33:31;;;;;;;1.7;0.9;;;;;;;12.79;87.53613;937.58;;;;
2021/08/28 07:35:57;;;;;;;1.7;1.1;;;;;;;12.86;87.55078;937.6283;;;;
2021/08/28 07:38:22;;;;;;;1.9;0.9;;;;;;;12.84;88.39648;937.6426;;;;
2021/08/28 07:40:47;;;;;;;1.6;0.8;;;;;;;12.78;88.54297;937.6367;;;;
2021/08/28 07:43:12;;;;;;;2.5;1.6;;;;;;;12.61;90.5957;937.6412;;;;
2021/08/28 07:45:43;;;;;;;2.6;1.7;;;;;;;12.7;89.98535;937.6599;;;;
2021/08/28 07:48:02;;;;;;;1.3;1.2;;;;;;;12.7;90.2832;937.6863;;;;
2021/08/28 07:50:28;;;;;;;1.6;1.3;;;;;;;12.58;91.13086;937.6555;;;;
2021/08/28 07:52:53;;;;;;;0.7;0.7;;;;;;;12.63;91.06055;937.7901;;;;
2021/08/28 07:55:18;;;;;;;2.2;0.9;;;;;;;12.6;90.70898;937.8553;;;;
2021/08/28 07:57:44;;;;;;;1;0.9;;;;;;;12.6;90.26074;937.7786;;;;
2021/08/28 08:00:09;;;;;;;3.7;1;;;;;;;12.6;90.48047;937.8161;;;;
2021/08/28 08:02:34;;;;;;;1;0.9;;;;;;;12.59;90.15625;937.8361;;;;
2021/08/28 08:04:59;;;;;;;1.1;1;;;;;;;12.61;91.09277;937.8405;;;;
2021/08/28 08:07:25;;;;;;;1.1;0.9;;;;;;;12.62;91.08105;937.9291;;;;
2021/08/28 08:09:49;;;;;;;2.4;1.5;;;;;;;12.69;91.09668;937.8101;;;;
2021/08/28 08:12:15;;;;;;;0.7;0.7;;;;;;;12.65;91.4082;937.8652;;;;
2021/08/28 08:14:40;;;;;;;1;0.9;;;;;;;12.56;91.55176;937.8193;;;;
2021/08/28 08:17:05;;;;;;;1.1;1;;;;;;;12.49;92.12109;937.7361;;;;
2021/08/28 08:19:30;;;;;;;1.2;1.1;;;;;;;12.62;91.32227;937.8069;;;;
2021/08/28 08:21:56;;;;;;;1.1;1;;;;;;;12.74;91.16504;937.7902;;;;
2021/08/28 08:24:21;;;;;;;18.1;13.5;;;;;;;12.75;91.09668;937.7717;;;;
2021/08/28 08:26:46;;;;;;;6.3;5.7;;;;;;;12.67;90.08301;937.747;;;;
2021/08/28 08:29:11;;;;;;;3.6;3.3;;;;;;;12.8;90.40723;937.8069;;;;
2021/08/28 08:31:36;;;;;;;1.2;1.1;;;;;;;12.78;90.46094;937.7925;;;;
2021/08/28 08:34:02;;;;;;;1;1;;;;;;;12.76;91.75195;937.7614;;;;
2021/08/28 08:36:27;;;;;;;1.7;1.6;;;;;;;12.89;91.9209;937.7177;;;;
2021/08/28 08:38:53;;;;;;;1.4;1.3;;;;;;;12.99;90.73438;937.7568;;;;
2021/08/28 08:41:18;;;;;;;1.5;1.4;;;;;;;13.08;91.28125;937.7458;;;;
2021/08/28 08:43:43;;;;;;;3.4;2.2;;;;;;;13.17;90.74707;937.7346;;;;
2021/08/28 08:46:08;;;;;;;3.6;1.6;;;;;;;13.2;91.2041;937.7059;;;;
2021/08/28 08:48:33;;;;;;;1.5;1.3;;;;;;;13.33;89.88477;937.8013;;;;
2021/08/28 08:51:00;;;;;;;1.1;1.1;;;;;;;13.27;89.48242;937.7773;;;;
2021/08/28 08:53:25;;;;;;;5.8;3.9;;;;;;;13.26;89.83691;937.7629;;;;
2021/08/28 08:55:51;;;;;;;5;3.4;;;;;;;13.33;89.44922;937.7708;;;;
2021/08/28 08:58:15;;;;;;;2.1;1.7;;;;;;;13.51;87.79688;937.7579;;;;
2021/08/28 09:00:40;;;;;;;1.7;1.6;;;;;;;13.49;87.89453;937.714;;;;
2021/08/28 09:03:05;;;;;;;4.8;2.7;;;;;;;13.65;89.71191;937.7458;;;;
2021/08/28 09:05:32;;;;;;;2.8;1.4;;;;;;;13.82;88.05469;937.7439;;;;
2021/08/28 09:07:57;;;;;;;1.9;1.3;;;;;;;13.86;85.08203;937.7773;;;;
2021/08/28 09:10:22;;;;;;;26.1;19.4;;;;;;;13.98;87.32617;937.712;;;;
2021/08/28 09:12:47;;;;;;;2.4;2.1;;;;;;;14;86.61719;937.7383;;;;
2021/08/28 09:15:17;;;;;;;2.4;2.2;;;;;;;14.06;88.17285;937.6926;;;;
2021/08/28 09:17:42;;;;;;;8.5;5.5;;;;;;;13.92;87.79785;937.7314;;;;
2021/08/28 09:20:07;;;;;;;11;5.7;;;;;;;13.77;89.48145;937.7358;;;;
2021/08/28 09:22:32;;;;;;;8;4.8;;;;;;;13.45;90.62305;937.7972;;;;
2021/08/28 09:24:59;;;;;;;3.2;2.3;;;;;;;13.52;89.46582;937.7603;;;;
2021/08/28 09:27:24;;;;;;;2.3;1.9;;;;;;;13.69;88.64941;937.704;;;;
2021/08/28 09:30:24;;;;;;;2.7;1.7;;;;;;;13.78;87.5625;937.7253;;;;
2021/08/28 09:32:49;;;;;;;3.5;1.9;;;;;;;13.74;87.81934;937.7294;;;;
2021/08/28 09:35:14;;;;;;;2.2;1.8;;;;;;;13.71;88.75684;937.86;;;;
2021/08/28 09:37:39;;;;;;;2.5;2.2;;;;;;;13.7;89.69824;937.8649;;;;
2021/08/28 09:40:04;;;;;;;2.2;2;;;;;;;13.5;90.01172;937.9435;;;;
2021/08/28 09:42:30;;;;;;;2.1;1.8;;;;;;;13.32;90.31934;938.1211;;;;
2021/08/28 09:44:55;;;;;;;2.6;1.7;;;;;;;13.33;91.4375;938.2883;;;;
2021/08/28 09:47:20;;;;;;;2;1.4;;;;;;;13.38;88.95508;938.309;;;;
2021/08/28 09:49:45;;;;;;;1.1;1;;;;;;;13.13;88.99512;938.3365;;;;
2021/08/28 09:52:10;;;;;;;1;0.9;;;;;;;12.86;89.96191;938.226;;;;
2021/08/28 09:54:36;;;;;;;1.2;0.6;;;;;;;12.7;90.11133;938.2815;;;;
2021/08/28 09:57:01;;;;;;;0.7;0.7;;;;;;;12.79;88.00684;938.3095;;;;
2021/08/28 09:59:27;;;;;;;0.9;0.5;;;;;;;12.75;86.80566;938.3334;;;;
2021/08/28 10:01:51;;;;;;;0.5;0.4;;;;;;;12.8;86.73438;938.3727;;;;
2021/08/28 10:04:17;;;;;;;0.6;0.4;;;;;;;12.63;87.1709;938.3461;;;;
2021/08/28 10:06:43;;;;;;;0.8;0.5;;;;;;;12.69;87.0459;938.3286;;;;
2021/08/28 10:09:08;;;;;;;0.6;0.3;;;;;;;12.6;86.09863;938.305;;;;
2021/08/28 10:11:33;;;;;;;0.4;0.4;;;;;;;12.57;86.93066;938.2906;;;;
2021/08/28 10:13:58;;;;;;;0.4;0.4;;;;;;;12.57;87.35547;938.2922;;;;
2021/08/28 10:16:23;;;;;;;0.8;0.6;;;;;;;12.31;88.78125;938.3456;;;;
2021/08/28 10:18:48;;;;;;;0.4;0.4;;;;;;;12.36;88.91699;938.3729;;;;
2021/08/28 10:21:14;;;;;;;1.3;0.7;;;;;;;12.29;89.62598;938.3552;;;;
2021/08/28 10:23:39;;;;;;;0.4;0.4;;;;;;;12.34;89.02734;938.2994;;;;
2021/08/28 10:26:04;;;;;;;1;0.5;;;;;;;12.32;88.72363;938.3448;;;;
2021/08/28 10:28:29;;;;;;;0.9;0.7;;;;;;;12.43;88.67871;938.2631;;;;
2021/08/28 10:30:54;;;;;;;1.3;1.2;;;;;;;12.21;88.08496;938.3378;;;;
2021/08/28 10:33:19;;;;;;;2.4;1.7;;;;;;;12.06;90.40234;938.3317;;;;
2021/08/28 10:35:44;;;;;;;1.3;1.2;;;;;;;12.11;90.98438;938.3271;;;;
2021/08/28 10:38:09;;;;;;;2.6;1.4;;;;;;;12.3;89.82129;938.3512;;;;
2021/08/28 10:40:34;;;;;;;1.4;1.2;;;;;;;12.52;91.1748;938.3432;;;;
2021/08/28 10:42:59;;;;;;;1.9;1.4;;;;;;;12.65;87.34668;938.3349;;;;
2021/08/28 10:45:25;;;;;;;1.1;1;;;;;;;12.57;89.74121;938.3448;;;;
2021/08/28 10:47:50;;;;;;;1;0.5;;;;;;;12.17;87.49316;938.3377;;;;
2021/08/28 10:50:15;;;;;;;1.4;1.3;;;;;;;12.57;87.41211;938.3304;;;;
2021/08/28 10:52:40;;;;;;;0.9;0.9;;;;;;;12.7;88.4248;938.3047;;;;
2021/08/28 10:55:05;;;;;;;1.4;1.1;;;;;;;13.01;89.34863;938.3762;;;;
2021/08/28 10:57:30;;;;;;;1;0.8;;;;;;;13.05;83.66113;938.3422;;;;
2021/08/28 11:05:31;;;;;;;1.5;1.1;;;;;;;12.82;84.45605;938.3514;;;;
2021/08/28 11:07:55;;;;;;;0.9;0.9;;;;;;;12.71;84.06445;938.3342;;;;
2021/08/28 11:10:20;;;;;;;1.2;0.8;;;;;;;12.78;87.0166;938.363;;;;
2021/08/28 11:12:45;;;;;;;0.8;0.8;;;;;;;12.79;85.41504;938.3398;;;;
2021/08/28 11:15:11;;;;;;;2.5;2.3;;;;;;;12.78;83.12598;938.2744;;;;
2021/08/28 11:17:36;;;;;;;2.4;1.8;;;;;;;12.88;85.21289;938.2723;;;;
2021/08/28 11:20:02;;;;;;;2.4;1.2;;;;;;;12.87;85.11719;938.3563;;;;
2021/08/28 11:22:26;;;;;;;0.8;0.7;;;;;;;12.74;84.7373;938.355;;;;
2021/08/28 11:24:51;;;;;;;4.2;3.5;;;;;;;12.45;85.28809;938.3542;;;;
2021/08/28 11:27:17;;;;;;;1;0.9;;;;;;;12.41;87.27441;938.3044;;;;
2021/08/28 11:29:42;;;;;;;3.8;3.4;;;;;;;12.32;84.35645;938.2601;;;;
2021/08/28 11:32:09;;;;;;;5.6;5.1;;;;;;;12.16;85.19727;938.2994;;;;
2021/08/28 11:34:32;;;;;;;30.2;22.6;;;;;;;12.02;84.74707;938.2311;;;;
2021/08/28 11:37:00;;;;;;;6.5;5.3;;;;;;;12.01;87.20801;938.231;;;;
2021/08/28 11:39:25;;;;;;;2.1;1.5;;;;;;;12.22;88.85449;938.2975;;;;
2021/08/28 11:41:51;;;;;;;2.1;1.3;;;;;;;12.44;88.19922;938.2369;;;;
2021/08/28 11:44:16;;;;;;;3.3;1.6;;;;;;;12.87;88.25293;938.2228;;;;
2021/08/28 11:46:43;;;;;;;2.2;1.2;;;;;;;13.06;86.11914;938.2439;;;;
2021/08/28 11:49:07;;;;;;;1.3;1.2;;;;;;;13;82.04492;938.2548;;;;
2021/08/28 11:51:48;;;;;;;1.7;1.2;;;;;;;12.92;84.7373;938.2683;;;;
2021/08/28 11:54:13;;;;;;;2.6;2.4;;;;;;;13.06;85.6709;938.2335;;;;
2021/08/28 11:56:38;;;;;;;1.2;1.1;;;;;;;13.07;83.30859;938.2159;;;;
2021/08/28 11:59:05;;;;;;;1.8;1.5;;;;;;;12.92;82.58105;938.2349;;;;
2021/08/28 12:01:30;;;;;;;0.8;0.8;;;;;;;12.64;85.30273;938.1831;;;;
2021/08/28 12:04:19;;;;;;;0.9;0.8;;;;;;;12.92;87.94043;938.2213;;;;
2021/08/28 12:06:45;;;;;;;1.2;1.1;;;;;;;12.87;87.38086;938.2419;;;;
2021/08/28 12:09:10;;;;;;;23.8;17.9;;;;;;;13.01;88.48926;938.2175;;;;
2021/08/28 12:11:35;;;;;;;1.3;0.7;;;;;;;12.79;89.0166;938.1984;;;;
2021/08/28 12:14:00;;;;;;;0.8;0.8;;;;;;;13.08;89.05273;938.1767;;;;
2021/08/28 12:16:25;;;;;;;1.6;0.9;;;;;;;13.32;86.27637;938.1603;;;;
2021/08/28 12:18:50;;;;;;;1.1;0.7;;;;;;;13.48;85.76855;938.1259;;;;
2021/08/28 12:21:15;;;;;;;1.1;1;;;;;;;13.51;86.6582;938.1323;;;;
2021/08/28 12:23:40;;;;;;;3.3;2.3;;;;;;;13.86;85.55566;938.1583;;;;
2021/08/28 12:26:05;;;;;;;0.9;0.8;;;;;;;13.76;83.12012;938.1575;;;;
2021/08/28 12:28:30;;;;;;;0.9;0.7;;;;;;;13.93;84.88672;938.1492;;;;
2021/08/28 12:30:56;;;;;;;1.4;0.9;;;;;;;14.18;84.93652;938.1621;;;;
2021/08/28 12:33:21;;;;;;;0.6;0.5;;;;;;;14.52;85.82324;938.0762;;;;
2021/08/28 12:35:46;;;;;;;1.1;1;;;;;;;14.68;82.17578;938.0884;;;;
2021/08/28 12:38:11;;;;;;;0.9;0.8;;;;;;;14.52;82.66602;938.0073;;;;
2021/08/28 12:40:36;;;;;;;1.1;0.6;;;;;;;14.44;84.06543;938.0078;;;;
2021/08/28 12:43:03;;;;;;;0.4;0.4;;;;;;;14.78;80.77832;937.9794;;;;
2021/08/28 12:45:26;;;;;;;0.4;0.4;;;;;;;14.98;78.75;937.9718;;;;
2021/08/28 12:47:51;;;;;;;0.6;0.6;;;;;;;14.92;79.50977;937.949;;;;
2021/08/28 12:50:17;;;;;;;0.4;0.4;;;;;;;14.87;77.3916;937.9511;;;;
2021/08/28 12:52:42;;;;;;;0.5;0.5;;;;;;;15.04;77.89453;937.8883;;;;
2021/08/28 12:55:07;;;;;;;0.7;0.4;;;;;;;15.09;79.15039;937.8525;;;;
2021/08/28 12:57:32;;;;;;;0.6;0.6;;;;;;;14.96;78.27344;937.8188;;;;
2021/08/28 12:59:57;;;;;;;0.6;0.4;;;;;;;15.04;80.73242;937.8947;;;;
2021/08/28 13:02:22;;;;;;;1.1;0.9;;;;;;;15.12;79.16699;937.8507;;;;
2021/08/28 13:04:47;;;;;;;1.6;1.3;;;;;;;14.79;79.2334;937.9033;;;;
2021/08/28 13:07:12;;;;;;;0.5;0.5;;;;;;;14.77;80.24414;937.8361;;;;
2021/08/28 13:09:38;;;;;;;1.8;1.1;;;;;;;14.61;82.71582;937.8778;;;;
2021/08/28 13:12:03;;;;;;;1.2;0.7;;;;;;;14.56;80.73633;937.9333;;;;
2021/08/28 13:14:28;;;;;;;0.5;0.5;;;;;;;14.54;81.74707;937.9255;;;;
2021/08/28 13:16:53;;;;;;;0.6;0.5;;;;;;;14.45;80.65918;937.8972;;;;
2021/08/28 13:19:19;;;;;;;0.8;0.4;;;;;;;14.43;80.11426;937.955;;;;
2021/08/28 13:21:45;;;;;;;0.6;0.6;;;;;;;14.39;82.02734;937.889;;;;
2021/08/28 13:24:09;;;;;;;0.5;0.5;;;;;;;14.45;82.43262;937.9197;;;;
2021/08/28 13:26:34;;;;;;;0.4;0.4;;;;;;;14.62;81.33594;937.9172;;;;
2021/08/28 13:28:59;;;;;;;0.6;0.6;;;;;;;14.59;81.56152;937.8819;;;;
2021/08/28 13:31:24;;;;;;;0.8;0.4;;;;;;;14.55;81.79297;937.883;;;;
2021/08/28 13:33:50;;;;;;;0.5;0.5;;;;;;;14.49;81.70215;937.8777;;;;
2021/08/28 13:36:16;;;;;;;0.4;0.4;;;;;;;14.41;80.18945;937.9305;;;;
2021/08/28 13:38:41;;;;;;;0.9;0.8;;;;;;;14.33;80.46289;937.8805;;;;
2021/08/28 13:41:06;;;;;;;1.2;0.4;;;;;;;14.43;82.77539;937.8754;;;;
2021/08/28 13:43:31;;;;;;;0.7;0.7;;;;;;;14.26;82.18945;937.9778;;;;
2021/08/28 13:45:56;;;;;;;1.5;0.7;;;;;;;14.09;84.14746;937.9928;;;;
2021/08/28 13:48:22;;;;;;;0.7;0.5;;;;;;;14.3;82.73828;937.9864;;;;
2021/08/28 13:50:46;;;;;;;0.3;0.3;;;;;;;14.25;83.88086;938.0011;;;;
2021/08/28 13:53:12;;;;;;;1.2;0.4;;;;;;;14.36;82.40234;937.9869;;;;
2021/08/28 13:55:36;;;;;;;0.7;0.5;;;;;;;14.17;82;938.0308;;;;
2021/08/28 13:58:02;;;;;;;1.1;0.6;;;;;;;14.44;80.63379;938.011;;;;
2021/08/28 14:00:27;;;;;;;0.6;0.4;;;;;;;14.23;82.39063;938.0333;;;;
2021/08/28 14:02:56;;;;;;;0.4;0.4;;;;;;;14.55;80.49316;938.0232;;;;
2021/08/28 14:05:24;;;;;;;0.5;0.5;;;;;;;14.23;81.1582;938.0148;;;;
2021/08/28 14:07:49;;;;;;;0.5;0.5;;;;;;;14.45;83.1123;937.9861;;;;
2021/08/28 14:10:14;;;;;;;0.6;0.3;;;;;;;14.62;80.05664;938.0062;;;;
2021/08/28 14:12:42;;;;;;;0.7;0.6;;;;;;;14.82;78.02734;938.0059;;;;
2021/08/28 14:15:07;;;;;;;0.4;0.4;;;;;;;14.83;78.28223;938.0003;;;;
2021/08/28 14:17:32;;;;;;;0.5;0.5;;;;;;;14.8;78.71582;938.0274;;;;
2021/08/28 14:19:58;;;;;;;0.5;0.4;;;;;;;14.8;79.55762;938.0939;;;;
2021/08/28 14:22:23;;;;;;;0.4;0.4;;;;;;;14.71;79.76172;938.0809;;;;
2021/08/28 14:24:48;;;;;;;0.3;0.3;;;;;;;14.68;80.72363;938.1133;;;;
2021/08/28 14:27:13;;;;;;;0.7;0.5;;;;;;;14.68;79.16699;938.1445;;;;
2021/08/28 14:29:38;;;;;;;0.3;0.3;;;;;;;14.6;80.00586;938.1503;;;;
2021/08/28 14:32:03;;;;;;;0.4;0.4;;;;;;;14.57;80.04492;938.1794;;;;
2021/08/28 14:34:29;;;;;;;1.3;0.5;;;;;;;14.59;80.18945;938.1495;;;;
2021/08/28 14:36:53;;;;;;;0.4;0.4;;;;;;;14.56;81.62402;938.1802;;;;
2021/08/28 14:39:19;;;;;;;0.9;0.5;;;;;;;14.28;83.64453;938.1964;;;;
2021/08/28 14:41:44;;;;;;;1;0.7;;;;;;;14.34;84.64551;938.0992;;;;
2021/08/28 14:44:10;;;;;;;1.5;1.1;;;;;;;14.19;84.25879;938.2205;;;;
2021/08/28 14:46:35;;;;;;;1.7;1;;;;;;;14.07;83.99609;938.181;;;;
2021/08/28 14:49:00;;;;;;;1;0.5;;;;;;;14.03;84.83887;938.222;;;;
2021/08/28 14:51:25;;;;;;;0.9;0.4;;;;;;;13.96;84.36621;938.1908;;;;
2021/08/28 14:53:52;;;;;;;1.1;0.6;;;;;;;13.95;84.05176;938.2756;;;;
2021/08/28 14:56:15;;;;;;;0.6;0.5;;;;;;;13.98;84.78418;938.2739;;;;
2021/08/28 14:58:41;;;;;;;0.6;0.5;;;;;;;13.93;83.56543;938.3061;;;;
2021/08/28 15:01:09;;;;;;;1.3;0.6;;;;;;;13.82;84.74121;938.3497;;;;
2021/08/28 15:03:32;;;;;;;0.9;0.8;;;;;;;13.78;86.58398;938.3736;;;;
2021/08/28 15:05:56;;;;;;;0.8;0.8;;;;;;;13.64;88.78809;938.3019;;;;
2021/08/28 15:08:21;;;;;;;0.9;0.9;;;;;;;13.51;89.32617;938.3627;;;;
2021/08/28 15:10:46;;;;;;;1;0.9;;;;;;;13.52;89.78613;938.4155;;;;
2021/08/28 15:13:14;;;;;;;1;1;;;;;;;13.53;89.00781;938.3867;;;;
2021/08/28 15:15:37;;;;;;;1.7;0.9;;;;;;;13.64;87.75293;938.3035;;;;
2021/08/28 15:18:02;;;;;;;1.1;1;;;;;;;13.58;87.16602;938.3689;;;;
2021/08/28 15:20:29;;;;;;;1.2;1.1;;;;;;;13.59;88.17969;938.4194;;;;
2021/08/28 15:22:54;;;;;;;0.8;0.8;;;;;;;13.62;88.06934;938.4692;;;;
2021/08/28 15:25:19;;;;;;;0.8;0.8;;;;;;;13.59;88.49023;938.4274;;;;
2021/08/28 15:27:44;;;;;;;1;0.9;;;;;;;13.61;88.80566;938.4297;;;;
2021/08/28 15:30:11;;;;;;;1.6;0.9;;;;;;;13.62;88.58887;938.4628;;;;
2021/08/28 15:32:36;;;;;;;0.6;0.6;;;;;;;13.59;87.65039;938.5066;;;;
2021/08/28 15:35:01;;;;;;;0.6;0.5;;;;;;;13.59;87.78809;938.4953;;;;
2021/08/28 15:37:26;;;;;;;1.3;0.7;;;;;;;13.5;88.84082;938.4883;;;;
2021/08/28 15:39:51;;;;;;;1.3;1;;;;;;;13.47;89.42969;938.4803;;;;